Time;durP1;ratioP1;P1;durP2;ratioP2;P2;SDS_P1;SDS_P2;PMS_P1;PMS_P2;Temp;Humidity;BMP_temperature;BMP_pressure;BME280_temperature;BME280_humidity;BME280_pressure;Samples;Min_cycle;Max_cycle;Signal;HPM_P1;HPM_P2
2022/01/20 00:00:15;;;;;;;0.30;0.30;;;6.40;99.90;6.90;102426.00;;;;5016282;28;20182;-70
2022/01/20 00:02:57;;;;;;;0.30;0.30;;;6.40;99.90;6.30;102421.00;;;;4999480;28;20188;-70
2022/01/20 00:08:31;;;;;;;0.60;0.60;;;6.30;99.90;6.70;102430.00;;;;4983068;28;20589;-71
2022/01/20 00:28:08;;;;;;;0.30;0.30;;;6.40;99.90;6.50;102433.00;;;;5000471;28;20219;-71
2022/01/20 00:38:28;;;;;;;1.83;0.83;;;6.20;99.90;5.90;102446.00;;;;4997690;28;20187;-70
2022/01/20 00:40:55;;;;;;;0.57;0.57;;;6.00;99.90;5.50;102444.00;;;;4997672;28;20228;-71
2022/01/20 00:43:56;;;;;;;1.73;0.70;;;5.70;99.90;5.40;102444.00;;;;4997796;28;20186;-71
2022/01/20 00:46:30;;;;;;;0.20;0.20;;;5.60;99.90;5.60;102448.00;;;;4981486;28;20230;-71
2022/01/20 00:49:01;;;;;;;0.20;0.20;;;5.70;99.90;6.10;102463.00;;;;4997822;28;20698;-71
2022/01/20 00:51:33;;;;;;;0.30;0.30;;;5.90;99.90;6.10;102481.00;;;;4997356;28;20204;-71
2022/01/20 00:54:04;;;;;;;0.40;0.40;;;6.00;99.90;6.40;102480.00;;;;4997330;28;20337;-72
2022/01/20 00:56:30;;;;;;;0.33;0.33;;;6.10;99.90;5.90;102483.00;;;;4996641;28;20168;-72
2022/01/20 00:59:02;;;;;;;1.17;0.40;;;6.10;99.90;5.80;102476.00;;;;5013590;28;20551;-71
2022/01/20 01:01:34;;;;;;;0.30;0.30;;;6.10;99.90;6.40;102477.00;;;;5014860;28;20200;-72
2022/01/20 01:04:05;;;;;;;0.50;0.50;;;6.20;99.90;6.40;102449.00;;;;4997088;28;20229;-71
2022/01/20 01:09:08;;;;;;;0.30;0.30;;;6.20;99.90;6.30;102492.00;;;;4997681;28;20197;-70
2022/01/20 01:11:42;;;;;;;0.30;0.30;;;6.20;99.90;6.40;102490.00;;;;5014737;28;20259;-71
2022/01/20 01:14:18;;;;;;;0.30;0.30;;;6.20;99.90;6.70;102485.00;;;;4997463;28;20191;-71
2022/01/20 01:24:45;;;;;;;0.30;0.30;;;6.50;99.90;6.70;102482.00;;;;4997414;28;20193;-71
2022/01/20 01:27:17;;;;;;;0.40;0.40;;;6.40;99.90;7.00;102490.00;;;;4996788;28;20233;-70
2022/01/20 01:35:08;;;;;;;0.30;0.30;;;6.60;99.90;7.20;102460.00;;;;4996554;28;20191;-70
2022/01/20 01:40:13;;;;;;;0.40;0.40;;;7.00;99.90;7.30;102507.00;;;;4996347;28;20198;-71
2022/01/20 01:42:47;;;;;;;0.30;0.30;;;6.90;99.90;7.40;102491.00;;;;4996693;28;20288;-70
2022/01/20 01:45:29;;;;;;;0.30;0.30;;;7.10;99.90;7.00;102496.00;;;;4996734;28;20241;-71
2022/01/20 01:48:00;;;;;;;0.30;0.30;;;6.90;99.90;6.90;102493.00;;;;4996554;28;20177;-70
2022/01/20 01:50:27;;;;;;;0.30;0.30;;;6.90;99.90;6.00;102491.00;;;;4996440;28;20185;-70
2022/01/20 01:52:55;;;;;;;0.27;0.27;;;6.50;99.90;6.00;102495.00;;;;4979993;28;20193;-71
2022/01/20 01:55:27;;;;;;;0.30;0.30;;;6.30;99.90;6.40;102445.00;;;;4980196;28;20209;-70
2022/01/20 01:57:58;;;;;;;0.47;0.47;;;6.20;99.90;6.10;102505.00;;;;5013864;28;20186;-70
2022/01/20 02:00:30;;;;;;;0.20;0.20;;;6.20;99.90;5.90;102509.00;;;;4980199;28;20192;-70
2022/01/20 02:02:57;;;;;;;0.53;0.53;;;6.10;99.90;5.50;102493.00;;;;4979960;28;20280;-70
2022/01/20 02:05:32;;;;;;;0.43;0.43;;;5.90;99.90;6.00;102493.00;;;;4980201;28;20177;-71
2022/01/20 02:08:27;;;;;;;0.20;0.20;;;6.00;99.90;5.70;102494.00;;;;4995944;28;20185;-70
2022/01/20 02:19:26;;;;;;;0.30;0.30;;;5.80;99.90;5.60;102505.00;;;;4998899;28;20189;-71
2022/01/20 02:21:56;;;;;;;2.23;0.70;;;5.80;99.90;5.90;102496.00;;;;4996351;28;20192;-71
2022/01/20 02:24:30;;;;;;;0.20;0.20;;;5.90;99.90;6.00;102497.00;;;;4977956;28;20831;-70
2022/01/20 02:27:01;;;;;;;0.30;0.30;;;6.00;99.90;5.80;102502.00;;;;4994752;28;20169;-70
2022/01/20 02:29:33;;;;;;;3.13;1.37;;;5.90;99.90;6.10;102504.00;;;;4978813;28;20244;-70
2022/01/20 02:32:04;;;;;;;0.80;0.73;;;6.00;99.90;6.10;102483.00;;;;4995697;28;20244;-70
2022/01/20 02:34:35;;;;;;;1.53;0.97;;;6.10;99.90;5.90;102488.00;;;;4996157;28;20223;-70
2022/01/20 02:37:11;;;;;;;0.73;0.47;;;6.10;99.90;5.80;102495.00;;;;5012845;28;20181;-70
2022/01/20 02:40:04;;;;;;;1.70;1.00;;;5.90;99.90;6.00;102497.00;;;;4996365;28;20188;-71
2022/01/20 02:45:23;;;;;;;0.40;0.40;;;6.00;99.90;6.20;102534.00;;;;4998368;28;20226;-71
2022/01/20 02:47:54;;;;;;;0.30;0.30;;;6.20;99.90;6.30;102556.00;;;;4995902;28;20190;-71
2022/01/20 02:50:25;;;;;;;0.30;0.30;;;6.10;99.90;6.00;102548.00;;;;5013009;28;20668;-72
2022/01/20 02:52:54;;;;;;;0.70;0.70;;;6.00;99.90;6.00;102504.00;;;;4995535;28;20212;-72
2022/01/20 02:55:25;;;;;;;0.33;0.33;;;6.10;99.90;6.20;102562.00;;;;5013521;28;20183;-72
2022/01/20 02:57:56;;;;;;;0.40;0.40;;;6.20;99.90;6.00;102546.00;;;;4995815;28;20190;-71
2022/01/20 03:00:27;;;;;;;0.30;0.30;;;6.20;99.90;6.10;102546.00;;;;4979597;28;20184;-71
2022/01/20 03:02:58;;;;;;;0.30;0.30;;;6.20;99.90;6.70;102546.00;;;;4979284;28;20185;-72
2022/01/20 03:05:24;;;;;;;0.30;0.30;;;6.30;99.90;6.60;102511.00;;;;4995832;28;20551;-71
2022/01/20 03:08:00;;;;;;;0.30;0.30;;;6.40;99.90;6.50;102537.00;;;;4996119;28;20184;-71
2022/01/20 03:10:29;;;;;;;0.30;0.30;;;6.50;99.90;6.50;102527.00;;;;4979803;28;20214;-71
2022/01/20 03:12:58;;;;;;;0.30;0.30;;;6.40;99.90;6.60;102532.00;;;;4995517;28;20296;-71
2022/01/20 03:15:30;;;;;;;0.30;0.30;;;6.40;99.90;6.70;102525.00;;;;4995633;28;20193;-71
2022/01/20 03:18:03;;;;;;;0.30;0.30;;;6.50;99.90;6.40;102516.00;;;;4979707;28;20273;-71
2022/01/20 03:20:31;;;;;;;0.30;0.30;;;6.30;99.90;6.60;102524.00;;;;4999148;28;20173;-71
2022/01/20 03:23:07;;;;;;;0.30;0.30;;;6.40;99.90;6.50;102514.00;;;;4999744;28;20183;-71
2022/01/20 03:25:33;;;;;;;0.30;0.30;;;6.40;99.90;6.50;102514.00;;;;4983219;28;20179;-70
2022/01/20 03:28:03;;;;;;;0.30;0.30;;;6.30;99.90;6.60;102502.00;;;;4999251;28;20186;-70
2022/01/20 03:30:34;;;;;;;0.30;0.30;;;6.40;99.90;6.80;102506.00;;;;4982969;28;20227;-70
2022/01/20 03:33:03;;;;;;;0.30;0.30;;;6.40;99.90;6.80;102519.00;;;;4998776;28;20216;-70
2022/01/20 03:35:30;;;;;;;0.30;0.30;;;6.50;99.90;6.40;102518.00;;;;4982407;28;20199;-69
2022/01/20 03:37:59;;;;;;;0.30;0.30;;;6.40;99.90;6.40;102466.00;;;;4999236;28;20196;-71
2022/01/20 03:40:25;;;;;;;0.30;0.30;;;6.30;99.90;6.20;102515.00;;;;4982822;28;20666;-70
2022/01/20 03:42:51;;;;;;;0.30;0.30;;;6.20;99.90;6.60;102520.00;;;;4999058;28;20184;-70
2022/01/20 03:45:27;;;;;;;0.40;0.40;;;6.40;99.90;6.40;102506.00;;;;4998927;28;20184;-71
2022/01/20 03:48:05;;;;;;;0.30;0.30;;;6.30;99.90;6.20;102500.00;;;;4999280;28;20179;-70
2022/01/20 03:51:06;;;;;;;0.30;0.30;;;6.20;99.90;6.10;102506.00;;;;4999826;28;20346;-70
2022/01/20 03:53:38;;;;;;;0.30;0.30;;;6.20;99.90;6.20;102480.00;;;;5000348;28;20197;-70
2022/01/20 03:56:09;;;;;;;0.30;0.30;;;6.10;99.90;6.50;102464.00;;;;4982551;28;20304;-69
2022/01/20 03:58:44;;;;;;;0.40;0.40;;;6.20;99.90;6.30;102505.00;;;;4998940;28;20541;-70
2022/01/20 04:01:18;;;;;;;0.30;0.30;;;6.20;99.90;6.60;102506.00;;;;4998691;28;20977;-70
2022/01/20 04:03:48;;;;;;;0.30;0.30;;;6.30;99.90;6.70;102511.00;;;;4982033;28;20280;-70
2022/01/20 04:06:19;;;;;;;0.30;0.30;;;6.40;99.90;6.60;102460.00;;;;4982415;28;20270;-70
2022/01/20 04:08:53;;;;;;;0.30;0.30;;;6.30;99.90;6.20;102491.00;;;;4982148;28;20231;-70
2022/01/20 04:11:28;;;;;;;0.50;0.50;;;6.20;99.90;5.80;102456.00;;;;4998170;28;20210;-71
2022/01/20 04:14:02;;;;;;;0.57;0.57;;;6.00;99.90;5.80;102455.00;;;;4982515;28;20190;-70
2022/01/20 04:16:53;;;;;;;0.30;0.30;;;5.90;99.90;5.70;102500.00;;;;4999157;28;20189;-70
2022/01/20 04:19:28;;;;;;;0.30;0.30;;;5.70;99.90;5.90;102504.00;;;;4983793;28;20191;-70
2022/01/20 04:22:04;;;;;;;0.30;0.30;;;5.80;99.90;6.00;102512.00;;;;4998094;28;20183;-70
2022/01/20 04:24:38;;;;;;;0.30;0.30;;;5.90;99.90;6.20;102517.00;;;;4982345;28;20227;-70
2022/01/20 04:27:09;;;;;;;0.30;0.30;;;6.00;99.90;6.30;102521.00;;;;4982176;28;20190;-70
2022/01/20 04:29:40;;;;;;;0.30;0.30;;;6.00;99.90;6.50;102517.00;;;;4998206;28;20187;-70
2022/01/20 04:32:07;;;;;;;0.30;0.30;;;6.20;99.90;6.60;102510.00;;;;5013620;28;20218;-71
2022/01/20 04:34:38;;;;;;;0.30;0.30;;;6.20;99.90;6.40;102521.00;;;;4997957;28;20200;-70
2022/01/20 04:37:09;;;;;;;0.30;0.30;;;6.20;99.90;6.40;102534.00;;;;4997911;28;20259;-70
2022/01/20 04:39:44;;;;;;;0.30;0.30;;;6.10;99.90;6.30;102532.00;;;;4997640;28;20262;-70
2022/01/20 04:42:18;;;;;;;0.30;0.30;;;6.10;99.90;6.60;102494.00;;;;4998494;28;20185;-69
2022/01/20 04:44:56;;;;;;;0.40;0.40;;;6.20;99.90;6.50;102483.00;;;;4997856;28;20236;-70
2022/01/20 04:47:43;;;;;;;0.40;0.40;;;6.20;99.90;6.30;102528.00;;;;4998883;28;20247;-69
2022/01/20 04:58:45;;;;;;;0.50;0.50;;;6.10;99.90;6.10;102518.00;;;;5015102;28;20646;-70
2022/01/20 05:01:12;;;;;;;0.30;0.30;;;6.10;99.90;6.00;102514.00;;;;4997213;28;20173;-69
2022/01/20 05:03:46;;;;;;;0.30;0.30;;;6.00;99.90;6.00;102524.00;;;;4997385;28;20186;-70
2022/01/20 05:06:22;;;;;;;0.30;0.30;;;5.90;99.90;6.40;102525.00;;;;4981470;28;20566;-69
2022/01/20 05:08:54;;;;;;;0.30;0.30;;;6.10;99.90;6.40;102525.00;;;;4996947;28;20197;-69
2022/01/20 05:11:27;;;;;;;0.47;0.47;;;6.20;99.90;5.90;102531.00;;;;4997039;28;20177;-70
2022/01/20 05:13:58;;;;;;;0.30;0.30;;;6.00;99.90;6.00;102510.00;;;;4996998;28;20617;-70
2022/01/20 05:16:29;;;;;;;0.30;0.30;;;6.00;99.90;6.10;102503.00;;;;5013025;28;20243;-69
2022/01/20 05:19:00;;;;;;;0.30;0.30;;;6.00;99.90;6.10;102467.00;;;;4996946;28;20176;-68
2022/01/20 05:21:32;;;;;;;0.30;0.30;;;6.00;99.90;6.00;102520.00;;;;4980639;28;20184;-69
2022/01/20 05:24:03;;;;;;;0.97;0.97;;;6.00;99.90;6.00;102519.00;;;;4980613;28;20572;-69
2022/01/20 05:26:33;;;;;;;0.30;0.30;;;6.00;99.90;6.10;102536.00;;;;4996812;28;20186;-70
2022/01/20 05:29:04;;;;;;;0.30;0.30;;;6.10;99.90;5.80;102537.00;;;;4996927;28;20249;-70
2022/01/20 05:31:35;;;;;;;0.30;0.30;;;6.10;99.90;5.70;102519.00;;;;4996358;28;20233;-69
2022/01/20 05:34:07;;;;;;;0.87;0.70;;;6.00;99.90;5.90;102557.00;;;;4980646;28;20209;-69
2022/01/20 05:36:38;;;;;;;7.10;1.27;;;6.10;99.90;5.60;102549.00;;;;4996716;28;20222;-69
2022/01/20 05:39:10;;;;;;;0.30;0.30;;;6.00;99.90;6.40;102573.00;;;;5013027;28;20610;-69
2022/01/20 05:41:43;;;;;;;4.63;0.70;;;6.20;99.90;5.80;102580.00;;;;4996448;28;20273;-70
2022/01/20 05:44:15;;;;;;;1.20;1.10;;;6.20;99.90;5.90;102587.00;;;;4980601;28;20636;-70
2022/01/20 05:46:49;;;;;;;0.20;0.20;;;6.20;99.90;5.90;102586.00;;;;4996570;28;20180;-70
2022/01/20 05:49:21;;;;;;;0.33;0.33;;;6.20;99.90;5.80;102576.00;;;;4997271;28;20934;-70
2022/01/20 05:51:54;;;;;;;0.40;0.40;;;6.00;99.90;5.60;102572.00;;;;5014156;28;20546;-71
2022/01/20 05:54:25;;;;;;;0.50;0.50;;;5.90;99.90;5.90;102589.00;;;;4996751;28;20249;-70
2022/01/20 05:56:57;;;;;;;0.30;0.30;;;5.90;99.90;5.90;102547.00;;;;4996513;28;20192;-70
2022/01/20 05:59:28;;;;;;;0.30;0.30;;;5.90;99.90;5.80;102594.00;;;;4979967;28;20542;-70
2022/01/20 06:02:09;;;;;;;0.30;0.30;;;5.90;99.90;6.00;102554.00;;;;4996233;28;20645;-70
2022/01/20 06:04:40;;;;;;;0.30;0.30;;;5.90;99.90;5.70;102600.00;;;;4981055;28;20556;-70
2022/01/20 06:07:12;;;;;;;0.30;0.30;;;5.80;99.90;5.90;102589.00;;;;4996251;28;20709;-70
2022/01/20 06:09:40;;;;;;;0.30;0.30;;;5.90;99.90;5.70;102588.00;;;;4996598;28;20193;-70
2022/01/20 06:12:10;;;;;;;0.30;0.30;;;5.70;99.90;6.00;102604.00;;;;4996136;28;20634;-71
2022/01/20 06:14:41;;;;;;;0.63;0.63;;;5.80;99.90;5.80;102604.00;;;;4979731;28;20187;-71
2022/01/20 06:17:15;;;;;;;0.30;0.30;;;5.90;99.90;5.80;102602.00;;;;4996065;28;20180;-71
2022/01/20 06:19:46;;;;;;;0.30;0.30;;;5.80;99.90;5.80;102612.00;;;;4996422;28;20520;-71
2022/01/20 06:22:20;;;;;;;0.30;0.30;;;5.80;99.90;6.00;102629.00;;;;5012405;28;20203;-70
2022/01/20 06:24:52;;;;;;;0.30;0.30;;;5.90;99.90;5.60;102632.00;;;;5012168;28;20212;-71
2022/01/20 06:27:23;;;;;;;1.30;0.73;;;5.80;99.90;5.60;102659.00;;;;4979766;28;20609;-71
2022/01/20 06:29:57;;;;;;;0.30;0.30;;;5.70;99.90;5.60;102661.00;;;;4978891;28;20204;-70
2022/01/20 06:32:28;;;;;;;1.13;0.90;;;5.80;99.90;5.50;102655.00;;;;4995759;28;20214;-70
2022/01/20 06:34:54;;;;;;;0.40;0.40;;;5.80;99.90;5.30;102656.00;;;;4995910;28;20190;-71
2022/01/20 06:37:20;;;;;;;3.83;0.93;;;5.70;99.90;5.10;102652.00;;;;4995813;28;20179;-70
2022/01/20 06:39:48;;;;;;;0.30;0.30;;;5.50;99.90;5.10;102652.00;;;;4992493;28;20189;-68
2022/01/20 06:42:14;;;;;;;0.30;0.30;;;5.40;99.90;5.10;102651.00;;;;4989695;28;20280;-69
2022/01/20 06:44:45;;;;;;;0.30;0.30;;;5.40;99.90;5.40;102650.00;;;;4976557;28;20192;-69
2022/01/20 06:47:14;;;;;;;0.60;0.60;;;5.50;99.90;5.10;102647.00;;;;4978848;28;20192;-69
2022/01/20 06:49:40;;;;;;;0.40;0.40;;;5.40;99.90;5.50;102603.00;;;;4996208;28;20191;-69
2022/01/20 06:52:11;;;;;;;0.30;0.30;;;5.50;99.90;5.60;102652.00;;;;5013405;28;20216;-68
2022/01/20 06:54:43;;;;;;;0.30;0.30;;;5.50;99.90;5.70;102656.00;;;;4998866;28;20195;-69
2022/01/20 06:57:59;;;;;;;0.83;0.83;;;5.60;99.90;5.80;102654.00;;;;5017179;28;20185;-68
2022/01/20 07:00:28;;;;;;;0.30;0.30;;;5.70;99.90;5.70;102657.00;;;;4979961;28;20193;-69
2022/01/20 07:02:54;;;;;;;0.40;0.40;;;5.70;99.90;5.90;102677.00;;;;4964097;28;20196;-69
2022/01/20 07:05:25;;;;;;;0.77;0.77;;;5.70;99.90;6.00;102676.00;;;;4979988;28;20188;-69
2022/01/20 07:07:56;;;;;;;0.30;0.30;;;5.80;99.90;5.90;102648.00;;;;4963658;28;20177;-69
2022/01/20 07:10:25;;;;;;;0.30;0.30;;;5.90;99.90;5.80;102679.00;;;;4963921;28;20209;-69
2022/01/20 07:12:54;;;;;;;0.30;0.30;;;5.80;99.90;5.80;102695.00;;;;4963450;28;20225;-69
2022/01/20 07:15:25;;;;;;;0.50;0.50;;;5.80;99.90;6.20;102703.00;;;;4963865;28;20197;-70
2022/01/20 07:17:51;;;;;;;0.40;0.40;;;5.90;99.90;5.60;102708.00;;;;4979585;28;20178;-69
2022/01/20 07:20:23;;;;;;;0.33;0.33;;;5.80;99.90;6.30;102708.00;;;;4979847;28;20188;-69
2022/01/20 07:23:18;;;;;;;0.50;0.50;;;6.00;99.90;6.10;102711.00;;;;4979770;28;20280;-69
2022/01/20 07:25:47;;;;;;;0.40;0.40;;;6.00;99.90;5.90;102718.00;;;;4997107;28;20205;-70
2022/01/20 07:28:18;;;;;;;0.30;0.30;;;6.00;99.90;5.90;102725.00;;;;4979445;28;20181;-69
2022/01/20 07:30:50;;;;;;;0.30;0.30;;;5.90;99.90;6.20;102721.00;;;;4979541;28;20186;-68
2022/01/20 07:33:21;;;;;;;1.07;0.97;;;6.00;99.90;5.80;102718.00;;;;4996816;28;20235;-69
2022/01/20 07:35:52;;;;;;;1.13;0.80;;;5.90;99.90;5.90;102738.00;;;;4963481;28;20192;-69
2022/01/20 07:38:23;;;;;;;0.30;0.30;;;5.90;99.90;6.30;102748.00;;;;4968882;28;20260;-70
2022/01/20 07:40:57;;;;;;;0.30;0.30;;;6.00;99.90;6.50;102733.00;;;;4995528;28;20189;-69
2022/01/20 07:43:35;;;;;;;0.40;0.40;;;6.20;99.90;6.40;102730.00;;;;4972563;28;20280;-70
2022/01/20 07:46:07;;;;;;;0.40;0.40;;;6.10;99.90;6.60;102732.00;;;;4995124;28;20183;-70
2022/01/20 07:48:38;;;;;;;0.40;0.40;;;6.20;99.90;6.40;102730.00;;;;4995374;28;20289;-68
2022/01/20 07:51:12;;;;;;;0.30;0.30;;;6.10;99.90;6.10;102686.00;;;;4995571;28;20182;-69
2022/01/20 07:53:44;;;;;;;0.40;0.40;;;6.00;99.90;5.90;102731.00;;;;4995449;28;20201;-70
2022/01/20 07:56:15;;;;;;;0.30;0.30;;;5.90;99.90;6.10;102724.00;;;;4995124;28;20199;-70
2022/01/20 07:58:47;;;;;;;0.30;0.30;;;6.00;99.90;6.00;102722.00;;;;4995313;28;20178;-71
2022/01/20 08:01:22;;;;;;;0.30;0.30;;;6.00;99.90;5.90;102720.00;;;;4995233;28;20177;-71
2022/01/20 08:03:53;;;;;;;0.40;0.40;;;5.80;99.90;6.10;102686.00;;;;4995949;28;20189;-71
2022/01/20 08:06:25;;;;;;;0.37;0.37;;;5.90;99.90;6.10;102708.00;;;;4995119;28;20662;-70
2022/01/20 08:08:51;;;;;;;0.40;0.40;;;5.90;99.90;6.20;102728.00;;;;4994733;28;20205;-72
2022/01/20 08:11:19;;;;;;;0.40;0.40;;;5.90;99.90;6.40;102733.00;;;;4995391;28;20160;-72
2022/01/20 08:13:51;;;;;;;0.40;0.40;;;6.00;99.90;6.00;102703.00;;;;4994929;28;20284;-70
2022/01/20 08:16:17;;;;;;;0.70;0.70;;;5.90;99.90;5.60;102732.00;;;;4996526;28;20181;-71
2022/01/20 08:18:48;;;;;;;0.37;0.37;;;5.80;99.90;6.10;102735.00;;;;4995050;28;20185;-70
2022/01/20 08:21:20;;;;;;;1.03;1.03;;;5.90;99.90;6.10;102731.00;;;;4994897;28;20179;-71
2022/01/20 08:23:50;;;;;;;0.30;0.30;;;5.80;99.90;5.90;102712.00;;;;4995140;28;20263;-70
2022/01/20 08:26:19;;;;;;;0.40;0.40;;;5.70;99.90;6.50;102752.00;;;;4995678;28;20197;-70
2022/01/20 08:28:53;;;;;;;0.40;0.40;;;6.00;99.90;6.40;102752.00;;;;4994667;28;20194;-70
2022/01/20 08:31:39;;;;;;;0.47;0.47;;;6.00;99.90;6.30;102757.00;;;;4994702;28;20722;-71
2022/01/20 08:34:05;;;;;;;0.40;0.40;;;6.00;99.90;6.40;102762.00;;;;4978269;28;20212;-71
2022/01/20 08:36:36;;;;;;;5.30;0.77;;;6.10;99.90;6.20;102765.00;;;;4995033;28;20185;-71
2022/01/20 08:39:12;;;;;;;4.83;0.77;;;6.10;99.90;5.80;102768.00;;;;4994679;28;20209;-71
2022/01/20 08:41:46;;;;;;;0.30;0.30;;;6.00;99.90;5.60;102774.00;;;;4994587;28;20192;-71
2022/01/20 08:44:15;;;;;;;3.90;0.80;;;5.90;99.90;5.70;102752.00;;;;4994393;28;20251;-72
2022/01/20 08:46:49;;;;;;;0.40;0.40;;;5.90;99.90;5.80;102775.00;;;;4994548;28;20243;-70
2022/01/20 08:49:21;;;;;;;0.30;0.30;;;6.00;99.90;5.50;102730.00;;;;4994281;28;20221;-70
2022/01/20 08:51:52;;;;;;;0.57;0.57;;;6.00;99.90;6.10;102786.00;;;;4994080;28;20204;-71
2022/01/20 08:54:19;;;;;;;0.30;0.30;;;6.10;99.90;5.60;102782.00;;;;4994159;28;20185;-71
2022/01/20 08:56:45;;;;;;;0.73;0.73;;;6.00;99.90;5.10;102763.00;;;;4994521;28;20182;-71
2022/01/20 08:59:17;;;;;;;0.50;0.50;;;5.70;99.90;5.40;102776.00;;;;4994393;28;20216;-70
2022/01/20 09:01:45;;;;;;;0.30;0.30;;;5.70;99.90;5.70;102786.00;;;;4995344;28;20181;-70
2022/01/20 09:04:22;;;;;;;0.33;0.33;;;5.80;99.90;6.30;102794.00;;;;4994133;28;20184;-69
2022/01/20 09:06:53;;;;;;;0.80;0.80;;;6.00;99.90;6.70;102806.00;;;;4994021;28;20191;-69
2022/01/20 09:09:24;;;;;;;0.50;0.50;;;6.30;99.90;6.90;102801.00;;;;4993935;28;20275;-69
2022/01/20 09:12:19;;;;;;;0.30;0.30;;;6.60;99.90;6.10;102803.00;;;;4994032;28;20587;-70
2022/01/20 09:17:37;;;;;;;1.50;1.50;;;6.50;99.90;6.10;102762.00;;;;4993200;28;20778;-70
2022/01/20 09:20:05;;;;;;;0.30;0.30;;;6.30;99.90;6.50;102835.00;;;;4993982;28;20650;-69
2022/01/20 09:22:31;;;;;;;0.30;0.30;;;6.50;99.90;6.60;102842.00;;;;4993645;28;20635;-69
2022/01/20 09:24:57;;;;;;;0.30;0.30;;;6.60;99.90;6.60;102833.00;;;;4993679;28;20174;-68
2022/01/20 09:27:32;;;;;;;0.30;0.30;;;6.50;99.90;6.50;102785.00;;;;4961384;28;20193;-69
2022/01/20 09:30:04;;;;;;;0.70;0.70;;;6.50;99.90;6.90;102832.00;;;;4993645;28;20187;-69
2022/01/20 09:32:35;;;;;;;0.20;0.20;;;6.70;99.90;6.80;102841.00;;;;4993609;28;20234;-69
2022/01/20 09:35:13;;;;;;;0.20;0.20;;;6.60;99.90;6.80;102860.00;;;;4993910;28;20273;-69
2022/01/20 09:37:44;;;;;;;0.20;0.20;;;6.60;99.90;6.40;102857.00;;;;4977066;28;20274;-69
2022/01/20 09:40:55;;;;;;;0.30;0.30;;;6.50;99.90;6.80;102860.00;;;;4993477;28;20188;-65
2022/01/20 09:43:23;;;;;;;0.87;0.87;;;6.60;99.90;7.00;102835.00;;;;4993785;28;20213;-64
2022/01/20 09:45:53;;;;;;;0.70;0.70;;;6.80;99.90;7.00;102874.00;;;;4993776;28;20175;-64
2022/01/20 09:48:19;;;;;;;0.20;0.20;;;6.90;99.90;7.10;102860.00;;;;4994544;28;20195;-64
2022/01/20 09:50:48;;;;;;;0.20;0.20;;;7.00;99.90;8.00;102881.00;;;;4994375;28;20184;-64
2022/01/20 09:53:14;;;;;;;0.20;0.20;;;7.40;99.90;8.10;102905.00;;;;4994100;28;20217;-64
2022/01/20 09:55:40;;;;;;;0.30;0.30;;;7.80;99.90;8.60;102875.00;;;;4993175;28;20184;-64
2022/01/20 09:58:10;;;;;;;0.20;0.20;;;8.10;99.90;8.60;102926.00;;;;4993277;28;20204;-64
2022/01/20 10:00:41;;;;;;;0.30;0.30;;;8.30;99.90;8.10;102931.00;;;;4994024;28;20273;-64
2022/01/20 10:03:12;;;;;;;0.30;0.30;;;7.90;99.90;8.80;102927.00;;;;5016066;28;20183;-64
2022/01/20 10:06:07;;;;;;;0.20;0.20;;;8.10;99.90;8.90;102944.00;;;;5033188;28;20209;-66
2022/01/20 10:08:35;;;;;;;0.20;0.20;;;8.40;99.90;8.50;102949.00;;;;5032662;28;20201;-65
2022/01/20 10:11:09;;;;;;;0.20;0.20;;;8.40;99.90;8.30;102947.00;;;;5016230;28;20183;-65
2022/01/20 10:13:42;;;;;;;0.27;0.27;;;8.20;99.90;8.70;102953.00;;;;5015830;28;20218;-66
2022/01/20 10:16:16;;;;;;;0.20;0.20;;;8.30;99.90;8.80;102962.00;;;;5015830;28;20270;-74
2022/01/20 10:18:57;;;;;;;0.20;0.20;;;8.40;99.90;8.10;102943.00;;;;4999525;28;20273;-74
2022/01/20 10:33:18;;;;;;;0.20;0.20;;;6.90;99.90;6.60;102891.00;;;;5117056;27;1314533;-74
2022/01/20 10:35:44;;;;;;;0.87;0.80;;;6.90;99.90;7.50;102910.00;;;;5098648;27;20210;-75
2022/01/20 10:38:27;;;;;;;0.20;0.20;;;7.20;99.90;8.00;102926.00;;;;5115770;27;20183;-74
2022/01/20 10:40:56;;;;;;;0.20;0.20;;;7.70;99.90;8.40;102944.00;;;;5126039;27;20230;-75
2022/01/20 10:43:33;;;;;;;2.10;0.70;;;8.10;99.90;9.00;102946.00;;;;5126407;27;20183;-74
2022/01/20 10:46:12;;;;;;;0.20;0.20;;;8.50;99.90;9.50;102971.00;;;;5103096;27;20229;-74
2022/01/20 10:48:39;;;;;;;0.20;0.20;;;9.20;99.90;9.30;102976.00;;;;5141253;27;20190;-74
2022/01/20 10:51:21;;;;;;;0.20;0.20;;;9.30;99.90;9.00;102977.00;;;;5107110;27;20188;-74
2022/01/20 10:54:11;;;;;;;6.60;0.90;;;9.10;99.90;8.90;102966.00;;;;5099253;28;20216;-74
2022/01/20 10:57:16;;;;;;;0.30;0.30;;;8.70;99.90;7.70;102952.00;;;;5075818;28;20226;-73
2022/01/20 11:00:04;;;;;;;0.20;0.20;;;7.90;99.90;7.10;102971.00;;;;5033900;28;20186;-74
2022/01/20 11:02:31;;;;;;;0.80;0.80;;;7.60;99.90;7.30;102977.00;;;;5092329;28;20259;-67
2022/01/20 11:04:58;;;;;;;0.40;0.40;;;7.30;99.90;6.50;102966.00;;;;5092557;28;20278;-66
2022/01/20 11:07:28;;;;;;;5.17;3.70;;;6.90;99.90;7.10;102958.00;;;;5092413;28;20176;-66
2022/01/20 11:10:05;;;;;;;0.53;0.53;;;7.00;99.90;6.70;102989.00;;;;5092436;28;20202;-64
2022/01/20 11:12:34;;;;;;;2.80;0.73;;;6.90;99.90;6.60;102967.00;;;;5110568;28;20231;-66
2022/01/20 11:15:00;;;;;;;0.20;0.20;;;6.70;99.90;6.50;102983.00;;;;5111004;28;20186;-67
2022/01/20 11:17:34;;;;;;;0.30;0.30;;;6.50;99.90;6.80;102986.00;;;;5102867;28;20192;-67
2022/01/20 11:20:21;;;;;;;2.07;0.40;;;6.70;99.90;6.50;102980.00;;;;5092551;28;20160;-67
2022/01/20 11:23:01;;;;;;;0.20;0.20;;;6.80;99.90;7.40;102976.00;;;;5116109;28;20266;-67
2022/01/20 11:25:36;;;;;;;0.20;0.20;;;7.10;99.90;7.80;102993.00;;;;5112450;27;20187;-67
2022/01/20 11:28:22;;;;;;;0.20;0.20;;;7.40;99.90;8.50;102983.00;;;;5129881;27;20646;-66
2022/01/20 11:31:04;;;;;;;0.20;0.20;;;7.80;99.90;8.50;102996.00;;;;5136070;27;20191;-66
2022/01/20 11:33:48;;;;;;;0.20;0.20;;;8.20;99.90;8.00;102995.00;;;;5130141;28;20192;-66
2022/01/20 11:36:27;;;;;;;0.30;0.30;;;8.00;99.90;8.00;102985.00;;;;5112451;28;20191;-66
2022/01/20 11:39:01;;;;;;;0.50;0.50;;;7.80;99.90;7.70;102932.00;;;;5112309;28;20175;-66
2022/01/20 11:41:40;;;;;;;0.20;0.20;;;7.80;99.90;8.70;102993.00;;;;5108502;28;20172;-65
2022/01/20 11:44:28;;;;;;;1.57;1.47;;;8.30;99.90;7.30;102980.00;;;;5081604;28;20246;-67
2022/01/20 11:47:06;;;;;;;1.20;0.67;;;8.00;99.90;6.50;102952.00;;;;5098057;27;20179;-67
2022/01/20 11:49:39;;;;;;;2.00;1.07;;;7.10;99.90;5.90;102879.00;;;;5105729;27;20190;-66
2022/01/20 11:52:07;;;;;;;2.17;1.47;;;6.60;99.90;5.90;102920.00;;;;5102312;27;20245;-65
2022/01/20 11:54:43;;;;;;;0.50;0.50;;;6.40;99.90;6.60;102927.00;;;;5108231;27;20180;-67
2022/01/20 11:57:30;;;;;;;0.50;0.50;;;6.60;99.90;6.00;102882.00;;;;5123220;27;20580;-67
2022/01/20 12:00:00;;;;;;;1.00;1.00;;;6.40;99.90;6.00;102915.00;;;;5110375;27;20763;-65
2022/01/20 12:02:32;;;;;;;6.67;3.13;;;6.40;99.90;6.50;102921.00;;;;5104251;27;20186;-65
2022/01/20 12:05:00;;;;;;;3.10;2.10;;;6.50;99.90;6.00;102928.00;;;;5128985;27;20197;-65
2022/01/20 12:07:30;;;;;;;3.67;1.60;;;6.50;99.90;6.20;102919.00;;;;5108047;27;20642;-65
2022/01/20 12:10:38;;;;;;;3.90;3.43;;;6.50;99.90;7.00;102925.00;;;;5120395;27;20193;-65
2022/01/20 12:13:12;;;;;;;2.37;1.30;;;6.90;99.90;7.20;102915.00;;;;5078826;27;20588;-67
2022/01/20 12:15:50;;;;;;;0.20;0.20;;;7.20;99.90;7.20;102868.00;;;;5107354;27;21080;-67
2022/01/20 12:18:19;;;;;;;0.47;0.47;;;7.30;99.90;7.50;102924.00;;;;5119404;27;20191;-67
2022/01/20 12:20:48;;;;;;;0.60;0.60;;;7.50;99.90;7.80;102856.00;;;;5122262;27;20712;-67
2022/01/20 12:23:14;;;;;;;0.30;0.30;;;7.60;99.90;7.40;102925.00;;;;5115710;27;20686;-67
2022/01/20 12:25:42;;;;;;;0.30;0.30;;;7.60;99.90;7.10;102928.00;;;;5059892;28;20191;-67
2022/01/20 12:28:15;;;;;;;0.50;0.50;;;7.40;99.90;8.10;102930.00;;;;5075666;28;20534;-66
2022/01/20 12:30:47;;;;;;;0.40;0.40;;;7.70;99.90;7.70;102954.00;;;;5077095;28;20271;-67
2022/01/20 12:33:16;;;;;;;0.20;0.20;;;7.80;99.90;7.70;102968.00;;;;5094561;28;20221;-67
2022/01/20 12:35:52;;;;;;;1.50;0.73;;;7.70;99.90;7.90;102968.00;;;;5077078;28;20176;-66
2022/01/20 12:38:28;;;;;;;0.20;0.20;;;7.90;99.90;7.90;102974.00;;;;5077596;28;20271;-66
2022/01/20 12:41:04;;;;;;;0.20;0.20;;;7.90;99.90;7.90;102975.00;;;;5077217;28;20188;-66
2022/01/20 12:44:07;;;;;;;0.63;0.63;;;7.90;99.90;7.70;102962.00;;;;5095241;28;20514;-66
2022/01/20 12:46:41;;;;;;;1.17;0.97;;;7.80;99.90;7.60;102964.00;;;;5016287;28;20187;-66
2022/01/20 12:49:19;;;;;;;0.63;0.30;;;7.80;99.90;8.30;102964.00;;;;5086218;28;20231;-67